Time;durP1;ratioP1;P1;durP2;ratioP2;P2;SDS_P1;SDS_P2;PMS_P1;PMS_P2;Temp;Humidity;BMP_temperature;BMP_pressure;BME280_temperature;BME280_humidity;BME280_pressure;Samples;Min_cycle;Max_cycle;Signal;HPM_P1;HPM_P2
2021/09/17 00:01:06;;;;;;;7.70;6.93;;;;;;;;;;5086673;28;20408;-63
2021/09/17 00:03:31;;;;;;;7.50;6.68;;;;;;;;;;5104151;28;20027;-65
2021/09/17 00:05:57;;;;;;;8.45;6.68;;;;;;;;;;5086241;28;20028;-66
2021/09/17 00:08:22;;;;;;;8.35;6.90;;;;;;;;;;5105992;28;20030;-67
2021/09/17 00:10:48;;;;;;;9.18;6.93;;;;;;;;;;5102863;28;20454;-64
2021/09/17 00:13:13;;;;;;;7.30;6.63;;;;;;;;;;5104525;28;20032;-63
2021/09/17 00:15:38;;;;;;;7.70;6.70;;;;;;;;;;5106026;28;20587;-64
2021/09/17 00:18:04;;;;;;;8.55;6.85;;;;;;;;;;5087531;28;20763;-63
2021/09/17 00:20:29;;;;;;;8.15;7.30;;;;;;;;;;5105280;28;20030;-64
2021/09/17 00:22:55;;;;;;;10.25;7.40;;;;;;;;;;5107369;28;20073;-63
2021/09/17 00:25:20;;;;;;;9.27;7.32;;;;;;;;;;5109917;28;20019;-65
2021/09/17 00:27:46;;;;;;;8.07;6.78;;;;;;;;;;5110797;28;20487;-63
2021/09/17 00:30:11;;;;;;;8.55;6.88;;;;;;;;;;5111987;28;20040;-63
2021/09/17 00:32:37;;;;;;;8.35;7.45;;;;;;;;;;5093027;28;20034;-63
2021/09/17 00:35:03;;;;;;;8.45;7.20;;;;;;;;;;5091704;28;20020;-63
2021/09/17 00:37:28;;;;;;;8.48;7.57;;;;;;;;;;5093887;28;20031;-67
2021/09/17 00:39:54;;;;;;;8.07;7.28;;;;;;;;;;5130530;27;20380;-63
2021/09/17 00:42:19;;;;;;;8.38;7.47;;;;;;;;;;5116951;27;20152;-65
2021/09/17 00:44:45;;;;;;;9.65;7.20;;;;;;;;;;5117872;28;20106;-66
2021/09/17 00:47:10;;;;;;;8.40;7.50;;;;;;;;;;5128210;28;20066;-63
2021/09/17 00:49:35;;;;;;;10.32;7.60;;;;;;;;;;5130434;28;20023;-63
2021/09/17 00:52:01;;;;;;;8.95;7.53;;;;;;;;;;5128770;28;20480;-67
2021/09/17 00:54:28;;;;;;;8.50;7.57;;;;;;;;;;5123322;28;20034;-64
2021/09/17 00:56:53;;;;;;;8.38;7.28;;;;;;;;;;5129848;28;20694;-63
2021/09/17 00:59:19;;;;;;;9.35;7.78;;;;;;;;;;5115403;28;20037;-63
2021/09/17 01:01:44;;;;;;;9.20;8.30;;;;;;;;;;5127925;28;20015;-63
2021/09/17 01:04:10;;;;;;;9.02;7.80;;;;;;;;;;5130042;28;20027;-63
2021/09/17 01:06:37;;;;;;;10.32;7.88;;;;;;;;;;5129647;28;20065;-64
2021/09/17 01:09:04;;;;;;;8.93;7.80;;;;;;;;;;5131767;28;20106;-63
2021/09/17 01:11:30;;;;;;;8.20;7.40;;;;;;;;;;5131396;28;20031;-63
2021/09/17 01:13:56;;;;;;;8.85;7.50;;;;;;;;;;5128011;27;20492;-66
2021/09/17 01:16:21;;;;;;;9.00;8.10;;;;;;;;;;5122402;27;20028;-63
2021/09/17 01:18:46;;;;;;;8.77;7.88;;;;;;;;;;5133115;27;20035;-65
2021/09/17 01:21:12;;;;;;;8.77;7.97;;;;;;;;;;5135491;27;20052;-63
2021/09/17 01:23:37;;;;;;;11.65;8.70;;;;;;;;;;5096053;27;20027;-63
2021/09/17 01:26:03;;;;;;;8.95;8.02;;;;;;;;;;5122481;27;20496;-63
2021/09/17 01:28:32;;;;;;;9.40;8.50;;;;;;;;;;5128026;27;20109;-65
2021/09/17 01:30:59;;;;;;;10.35;9.25;;;;;;;;;;5101459;27;20413;-63
2021/09/17 01:33:25;;;;;;;;;;;;;;;;;;5089845;27;20020;-64
2021/09/17 01:36:06;;;;;;;9.60;8.70;;;;;;;;;;5135373;27;19934;-65
2021/09/17 01:38:34;;;;;;;11.80;8.70;;;;;;;;;;5134036;27;20079;-65
2021/09/17 01:41:00;;;;;;;9.77;8.73;;;;;;;;;;5087814;27;20024;-63
2021/09/17 01:43:26;;;;;;;10.25;8.35;;;;;;;;;;5135447;27;20019;-64
2021/09/17 01:45:52;;;;;;;12.25;8.32;;;;;;;;;;5134707;27;20385;-64
2021/09/17 01:48:18;;;;;;;11.40;8.87;;;;;;;;;;5121300;27;20024;-65
2021/09/17 01:50:44;;;;;;;11.48;8.30;;;;;;;;;;5088921;27;20035;-63
2021/09/17 01:53:09;;;;;;;9.70;7.85;;;;;;;;;;5134718;27;20031;-63
2021/09/17 01:55:35;;;;;;;11.35;8.93;;;;;;;;;;5129349;27;20476;-63
2021/09/17 01:58:00;;;;;;;8.13;7.32;;;;;;;;;;5133775;27;20023;-63
2021/09/17 02:00:26;;;;;;;11.45;8.13;;;;;;;;;;5104748;28;20085;-63
2021/09/17 02:02:52;;;;;;;9.07;7.85;;;;;;;;;;5112694;28;20023;-63
2021/09/17 02:05:17;;;;;;;9.95;8.55;;;;;;;;;;5111986;28;20030;-63
2021/09/17 02:07:43;;;;;;;10.20;9.13;;;;;;;;;;5119038;27;20029;-63
2021/09/17 02:10:10;;;;;;;10.45;9.10;;;;;;;;;;5116188;27;20019;-63
2021/09/17 02:12:36;;;;;;;10.85;8.95;;;;;;;;;;5134801;27;20464;-63
2021/09/17 02:15:02;;;;;;;11.43;9.40;;;;;;;;;;5133311;27;20106;-63
2021/09/17 02:17:27;;;;;;;13.43;9.82;;;;;;;;;;5133390;27;20055;-63
2021/09/17 02:19:53;;;;;;;12.70;9.82;;;;;;;;;;5135093;27;20057;-63
2021/09/17 02:22:18;;;;;;;11.88;10.68;;;;;;;;;;4416796;27;10000677;-63
2021/09/17 02:24:44;;;;;;;11.32;9.50;;;;;;;;;;5112879;28;20031;-63
2021/09/17 02:27:10;;;;;;;10.68;9.57;;;;;;;;;;5110915;28;20023;-63
2021/09/17 02:29:35;;;;;;;13.10;10.48;;;;;;;;;;5095692;28;20049;-63
2021/09/17 02:32:01;;;;;;;13.23;9.70;;;;;;;;;;5113989;28;20024;-65
2021/09/17 02:34:26;;;;;;;14.85;11.05;;;;;;;;;;5113280;28;20119;-63
2021/09/17 02:36:51;;;;;;;10.95;9.85;;;;;;;;;;5113677;28;20020;-63
2021/09/17 02:39:17;;;;;;;11.73;10.40;;;;;;;;;;5132048;27;20023;-62
2021/09/17 02:41:43;;;;;;;12.13;10.32;;;;;;;;;;5133696;27;20019;-63
2021/09/17 02:44:09;;;;;;;10.25;9.25;;;;;;;;;;5109907;28;20039;-63
2021/09/17 02:46:35;;;;;;;11.63;10.33;;;;;;;;;;5094762;28;20027;-63
2021/09/17 02:49:00;;;;;;;12.95;9.77;;;;;;;;;;5112931;28;20042;-63
2021/09/17 02:51:26;;;;;;;12.00;10.30;;;;;;;;;;5093954;28;20023;-63
2021/09/17 02:53:52;;;;;;;11.93;9.63;;;;;;;;;;5113825;28;20038;-63
2021/09/17 02:56:17;;;;;;;12.55;9.35;;;;;;;;;;5113026;28;20104;-63
2021/09/17 02:58:42;;;;;;;12.23;9.75;;;;;;;;;;5112851;28;20031;-63
2021/09/17 03:01:08;;;;;;;10.70;9.60;;;;;;;;;;5113239;28;20015;-63
2021/09/17 03:03:33;;;;;;;10.82;9.73;;;;;;;;;;5094705;28;20535;-64
2021/09/17 03:05:59;;;;;;;10.55;9.45;;;;;;;;;;5112020;28;20015;-63
2021/09/17 03:08:24;;;;;;;10.70;9.60;;;;;;;;;;5124861;27;20469;-63
2021/09/17 03:10:52;;;;;;;10.85;9.75;;;;;;;;;;5114157;27;20023;-67
2021/09/17 03:13:17;;;;;;;;;;;;;;;;;;5114165;27;20026;-65
2021/09/17 03:15:42;;;;;;;13.63;10.32;;;;;;;;;;5131964;27;20280;-64
2021/09/17 03:18:08;;;;;;;10.20;9.20;;;;;;;;;;5131517;27;20091;-65
2021/09/17 03:20:33;;;;;;;10.80;9.70;;;;;;;;;;5105437;28;20346;-64
2021/09/17 03:23:00;;;;;;;11.27;9.27;;;;;;;;;;5094038;28;20118;-63
2021/09/17 03:25:26;;;;;;;9.40;8.45;;;;;;;;;;5112666;28;20440;-64
2021/09/17 03:27:51;;;;;;;9.80;8.80;;;;;;;;;;5112264;28;20103;-65
2021/09/17 03:30:16;;;;;;;9.82;8.90;;;;;;;;;;5103557;28;20046;-64
2021/09/17 03:32:42;;;;;;;9.40;8.32;;;;;;;;;;5092534;28;20100;-63
2021/09/17 03:35:07;;;;;;;11.18;8.18;;;;;;;;;;5089718;28;20811;-65
2021/09/17 03:37:33;;;;;;;10.32;7.70;;;;;;;;;;5095156;28;20542;-63
2021/09/17 03:39:58;;;;;;;8.23;7.43;;;;;;;;;;5110486;28;20813;-63
2021/09/17 03:42:23;;;;;;;9.30;8.25;;;;;;;;;;5092946;28;20373;-64
2021/09/17 03:44:49;;;;;;;10.02;7.68;;;;;;;;;;5091170;28;20469;-66
2021/09/17 03:47:14;;;;;;;8.73;7.75;;;;;;;;;;5074274;28;20050;-64
2021/09/17 03:49:39;;;;;;;7.95;7.22;;;;;;;;;;5073090;28;20492;-65
2021/09/17 03:52:05;;;;;;;10.95;7.90;;;;;;;;;;5072346;28;20054;-63
2021/09/17 03:54:31;;;;;;;8.93;8.02;;;;;;;;;;5091872;28;20020;-63
2021/09/17 03:56:59;;;;;;;11.07;7.68;;;;;;;;;;5092085;28;20056;-63
2021/09/17 03:59:24;;;;;;;9.00;8.10;;;;;;;;;;5091808;28;20028;-68
2021/09/17 04:01:49;;;;;;;10.15;8.35;;;;;;;;;;5093237;28;20024;-64
2021/09/17 04:04:15;;;;;;;8.90;8.00;;;;;;;;;;5091881;28;20043;-64
2021/09/17 04:06:43;;;;;;;11.13;8.35;;;;;;;;;;5072937;28;20417;-66
2021/09/17 04:09:10;;;;;;;11.43;8.63;;;;;;;;;;5089929;28;20049;-63
2021/09/17 04:11:35;;;;;;;11.23;8.70;;;;;;;;;;5111779;28;20027;-63
2021/09/17 04:14:01;;;;;;;10.43;9.32;;;;;;;;;;5111107;28;20023;-64
2021/09/17 04:16:26;;;;;;;12.55;10.75;;;;;;;;;;5111613;28;20035;-63
2021/09/17 04:18:51;;;;;;;13.27;11.20;;;;;;;;;;5111176;28;20031;-65
2021/09/17 04:21:17;;;;;;;15.73;11.48;;;;;;;;;;5111035;28;20396;-63
2021/09/17 04:23:42;;;;;;;14.10;12.00;;;;;;;;;;5112144;28;20381;-64
2021/09/17 04:26:07;;;;;;;15.35;12.43;;;;;;;;;;5111920;28;20126;-64
2021/09/17 04:28:33;;;;;;;14.27;11.00;;;;;;;;;;5093938;28;20378;-64
2021/09/17 04:30:58;;;;;;;11.57;10.38;;;;;;;;;;5111502;27;20484;-64
2021/09/17 04:33:23;;;;;;;14.02;11.10;;;;;;;;;;5094043;28;20073;-71
2021/09/17 04:35:49;;;;;;;11.50;9.88;;;;;;;;;;5110436;28;20731;-63
2021/09/17 04:38:14;;;;;;;10.85;8.77;;;;;;;;;;5119981;27;20099;-63
2021/09/17 04:40:41;;;;;;;8.77;7.75;;;;;;;;;;5132824;27;20031;-63
2021/09/17 04:43:06;;;;;;;9.97;7.70;;;;;;;;;;5132317;27;20484;-63
2021/09/17 04:45:32;;;;;;;8.30;7.45;;;;;;;;;;5130831;27;20027;-63
2021/09/17 04:47:57;;;;;;;9.85;7.60;;;;;;;;;;5101939;28;20022;-64
2021/09/17 04:50:22;;;;;;;8.63;7.72;;;;;;;;;;5111544;28;20099;-65
2021/09/17 04:52:51;;;;;;;8.40;7.60;;;;;;;;;;5092707;28;20026;-66
2021/09/17 04:55:17;;;;;;;8.10;7.30;;;;;;;;;;5092610;28;20097;-62
2021/09/17 04:57:42;;;;;;;10.95;7.38;;;;;;;;;;5093684;28;20110;-68
2021/09/17 05:00:08;;;;;;;7.85;7.05;;;;;;;;;;5092899;28;20111;-63
2021/09/17 05:02:34;;;;;;;7.82;6.97;;;;;;;;;;5111952;28;20443;-65
2021/09/17 05:04:59;;;;;;;8.60;7.68;;;;;;;;;;5111712;28;20030;-67
2021/09/17 05:07:24;;;;;;;11.50;7.35;;;;;;;;;;5095920;28;20077;-65
2021/09/17 05:09:50;;;;;;;10.88;7.97;;;;;;;;;;5113008;28;20054;-68
2021/09/17 05:12:15;;;;;;;9.00;7.07;;;;;;;;;;5113283;28;20390;-62
2021/09/17 05:14:40;;;;;;;7.75;6.95;;;;;;;;;;5112320;28;20026;-65
2021/09/17 05:17:06;;;;;;;8.30;7.47;;;;;;;;;;5119074;28;20079;-65
2021/09/17 05:19:31;;;;;;;10.88;8.07;;;;;;;;;;5109960;28;20496;-65
2021/09/17 05:21:56;;;;;;;8.30;7.50;;;;;;;;;;5109997;28;20015;-64
2021/09/17 05:24:23;;;;;;;8.85;7.68;;;;;;;;;;5092986;28;20528;-65
2021/09/17 05:26:49;;;;;;;7.85;7.15;;;;;;;;;;5111344;28;20489;-65
2021/09/17 05:29:15;;;;;;;8.55;7.65;;;;;;;;;;5092756;28;20075;-65
2021/09/17 05:31:41;;;;;;;7.70;7.00;;;;;;;;;;5110263;28;20098;-66
2021/09/17 05:34:07;;;;;;;8.70;7.47;;;;;;;;;;5110550;28;20030;-64
2021/09/17 05:36:32;;;;;;;7.53;6.75;;;;;;;;;;5110848;28;20562;-64
2021/09/17 05:38:57;;;;;;;7.53;6.75;;;;;;;;;;5113861;28;20050;-62
2021/09/17 05:41:23;;;;;;;8.02;7.18;;;;;;;;;;5110716;28;20059;-66
2021/09/17 05:43:50;;;;;;;9.63;7.13;;;;;;;;;;5100110;28;20122;-63
2021/09/17 05:46:15;;;;;;;8.20;7.28;;;;;;;;;;5110735;28;20030;-65
2021/09/17 05:48:41;;;;;;;11.73;8.35;;;;;;;;;;5091871;28;20036;-63
2021/09/17 05:51:06;;;;;;;8.52;7.57;;;;;;;;;;5111216;28;20029;-63
2021/09/17 05:53:31;;;;;;;8.75;7.82;;;;;;;;;;5111439;28;20050;-63
2021/09/17 05:55:57;;;;;;;7.85;6.55;;;;;;;;;;5109094;28;20016;-64
2021/09/17 05:58:27;;;;;;;8.05;7.22;;;;;;;;;;5110723;28;20035;-64
2021/09/17 06:00:53;;;;;;;8.52;7.22;;;;;;;;;;5111149;28;20027;-64
2021/09/17 06:03:18;;;;;;;8.75;7.40;;;;;;;;;;5110793;27;20092;-64
2021/09/17 06:05:44;;;;;;;8.13;7.32;;;;;;;;;;5102052;28;20442;-65
2021/09/17 06:08:09;;;;;;;10.52;8.07;;;;;;;;;;5100052;28;20027;-62
2021/09/17 06:10:34;;;;;;;10.15;8.95;;;;;;;;;;5132671;27;20097;-64
2021/09/17 06:13:00;;;;;;;10.80;9.38;;;;;;;;;;5109544;28;20481;-65
2021/09/17 06:15:25;;;;;;;11.40;9.70;;;;;;;;;;5111990;28;20076;-65
2021/09/17 06:17:50;;;;;;;11.15;9.85;;;;;;;;;;5094443;28;20115;-66
2021/09/17 06:20:16;;;;;;;10.90;9.55;;;;;;;;;;5113455;28;20400;-64
2021/09/17 06:22:45;;;;;;;13.82;10.13;;;;;;;;;;5113520;28;20024;-66
2021/09/17 06:25:11;;;;;;;15.85;11.10;;;;;;;;;;5095069;28;20393;-65
2021/09/17 06:27:36;;;;;;;20.13;11.90;;;;;;;;;;5113061;28;20028;-65
2021/09/17 06:30:04;;;;;;;17.42;10.98;;;;;;;;;;5092330;28;20051;-64
2021/09/17 06:32:29;;;;;;;13.27;10.20;;;;;;;;;;5093683;28;20024;-65
2021/09/17 06:34:55;;;;;;;20.27;12.20;;;;;;;;;;5090416;28;20063;-63
2021/09/17 06:37:20;;;;;;;15.68;10.70;;;;;;;;;;5095550;28;20043;-64
2021/09/17 06:39:46;;;;;;;17.20;10.68;;;;;;;;;;5112910;28;20027;-67
2021/09/17 06:42:11;;;;;;;12.50;9.02;;;;;;;;;;5103727;28;20077;-63
2021/09/17 06:44:36;;;;;;;10.65;9.27;;;;;;;;;;5099733;28;20047;-63
2021/09/17 06:47:03;;;;;;;10.35;8.80;;;;;;;;;;5092235;28;20027;-65
2021/09/17 06:49:28;;;;;;;10.70;8.70;;;;;;;;;;5088962;28;20031;-65
2021/09/17 06:51:54;;;;;;;9.88;8.80;;;;;;;;;;5090881;28;20024;-66
2021/09/17 06:54:19;;;;;;;10.68;8.48;;;;;;;;;;5090646;28;20024;-64
2021/09/17 06:56:44;;;;;;;11.05;8.55;;;;;;;;;;5091006;28;20445;-64
2021/09/17 06:59:10;;;;;;;10.75;9.30;;;;;;;;;;5124950;27;20293;-66
2021/09/17 07:01:35;;;;;;;10.63;9.02;;;;;;;;;;5092274;28;20024;-63
2021/09/17 07:04:00;;;;;;;10.57;9.45;;;;;;;;;;5091897;28;20539;-63
2021/09/17 07:06:26;;;;;;;10.98;9.45;;;;;;;;;;5093072;28;20016;-64
2021/09/17 07:08:53;;;;;;;13.15;8.68;;;;;;;;;;5107961;28;20015;-64
2021/09/17 07:11:19;;;;;;;8.95;8.02;;;;;;;;;;5113146;28;20024;-65
2021/09/17 07:13:44;;;;;;;12.50;9.20;;;;;;;;;;5111847;28;20103;-66
2021/09/17 07:16:09;;;;;;;10.82;8.13;;;;;;;;;;5111334;28;20136;-65
2021/09/17 07:34:21;;;;;;;10.75;9.27;;;;;;;;;;4967709;28;20221;-64
2021/09/17 07:36:47;;;;;;;12.18;10.15;;;;;;;;;;4953488;28;20129;-64
2021/09/17 07:39:12;;;;;;;10.38;8.93;;;;;;;;;;4950770;28;20095;-63
2021/09/17 07:41:38;;;;;;;12.10;9.25;;;;;;;;;;4953938;28;20046;-63
2021/09/17 07:44:03;;;;;;;13.55;9.77;;;;;;;;;;4971803;28;20027;-63
2021/09/17 07:46:29;;;;;;;15.32;9.80;;;;;;;;;;4957512;28;20472;-64
2021/09/17 07:48:54;;;;;;;10.73;9.63;;;;;;;;;;4953481;28;20922;-65
2021/09/17 07:51:20;;;;;;;10.48;9.30;;;;;;;;;;4939613;28;20042;-64
2021/09/17 07:53:45;;;;;;;11.23;8.68;;;;;;;;;;4966839;28;20044;-64
2021/09/17 07:56:11;;;;;;;11.02;9.57;;;;;;;;;;4970254;28;20035;-64
2021/09/17 07:58:36;;;;;;;10.52;8.95;;;;;;;;;;4972313;28;20038;-65
2021/09/17 08:01:02;;;;;;;11.32;9.15;;;;;;;;;;4970706;28;20034;-63
2021/09/17 08:03:32;;;;;;;12.15;9.75;;;;;;;;;;4954506;28;20026;-66
2021/09/17 08:06:01;;;;;;;14.43;9.60;;;;;;;;;;4972477;28;20035;-64
2021/09/17 08:08:27;;;;;;;9.45;8.45;;;;;;;;;;4273681;28;10000762;-66
2021/09/17 08:10:53;;;;;;;9.45;7.40;;;;;;;;;;4939410;28;20023;-63
2021/09/17 08:13:19;;;;;;;9.73;8.73;;;;;;;;;;4939139;28;20061;-66
2021/09/17 08:15:44;;;;;;;10.68;9.57;;;;;;;;;;4955846;28;20029;-65
2021/09/17 08:18:10;;;;;;;10.65;9.43;;;;;;;;;;4958357;28;20034;-63
2021/09/17 08:20:37;;;;;;;10.23;8.57;;;;;;;;;;4957667;28;20154;-64
2021/09/17 08:23:03;;;;;;;8.63;7.82;;;;;;;;;;4956746;28;20166;-67
2021/09/17 08:25:29;;;;;;;9.73;8.73;;;;;;;;;;4955323;28;20518;-66
2021/09/17 08:27:55;;;;;;;11.30;9.70;;;;;;;;;;4938065;28;20026;-65
2021/09/17 08:30:20;;;;;;;9.82;8.68;;;;;;;;;;4953647;28;20031;-65
2021/09/17 08:32:46;;;;;;;9.98;8.57;;;;;;;;;;4955665;28;20059;-63
2021/09/17 08:35:13;;;;;;;12.05;9.52;;;;;;;;;;4962919;28;20109;-65
2021/09/17 08:37:39;;;;;;;10.05;8.93;;;;;;;;;;4961929;28;20023;-66
2021/09/17 08:40:05;;;;;;;11.00;9.90;;;;;;;;;;4962157;28;20396;-64
2021/09/17 08:42:31;;;;;;;13.45;10.30;;;;;;;;;;4963319;28;20019;-65
2021/09/17 08:44:57;;;;;;;11.00;9.93;;;;;;;;;;4945572;28;20057;-64
2021/09/17 08:47:23;;;;;;;14.43;10.32;;;;;;;;;;4942200;28;20023;-64
2021/09/17 08:49:49;;;;;;;12.30;11.10;;;;;;;;;;4962283;28;20058;-65
2021/09/17 08:52:14;;;;;;;12.65;10.30;;;;;;;;;;4962410;28;20061;-67
2021/09/17 08:54:40;;;;;;;11.57;9.63;;;;;;;;;;4962115;28;20480;-66
2021/09/17 08:57:06;;;;;;;10.35;9.27;;;;;;;;;;4958922;28;20141;-65
2021/09/17 08:59:32;;;;;;;13.40;9.88;;;;;;;;;;4941203;28;20677;-67
2021/09/17 09:02:17;;;;;;;12.80;10.40;;;;;;;;;;4958026;28;20084;-64
2021/09/17 09:04:56;;;;;;;13.90;10.65;;;;;;;;;;4963128;28;20085;-64
2021/09/17 09:07:49;;;;;;;11.82;10.63;;;;;;;;;;4962600;28;20440;-63
2021/09/17 09:10:15;;;;;;;11.15;10.05;;;;;;;;;;4960706;28;20178;-64
2021/09/17 09:12:45;;;;;;;12.35;10.52;;;;;;;;;;4947361;28;20033;-65
2021/09/17 09:15:17;;;;;;;13.90;11.52;;;;;;;;;;4963712;28;20066;-65
2021/09/17 09:17:43;;;;;;;13.57;10.73;;;;;;;;;;4961257;28;20093;-64
2021/09/17 09:20:31;;;;;;;12.18;10.88;;;;;;;;;;4964212;28;20026;-65
2021/09/17 09:23:03;;;;;;;11.75;10.55;;;;;;;;;;4965809;28;20030;-64
2021/09/17 09:25:28;;;;;;;11.48;10.20;;;;;;;;;;4966435;28;20034;-63
2021/09/17 09:28:08;;;;;;;11.35;10.20;;;;;;;;;;4964387;28;20034;-65
2021/09/17 09:30:33;;;;;;;12.02;10.70;;;;;;;;;;4958144;28;20050;-65
2021/09/17 09:33:20;;;;;;;11.93;10.02;;;;;;;;;;4957108;28;20515;-66
2021/09/17 09:35:45;;;;;;;16.13;11.32;;;;;;;;;;4961554;28;20171;-68
2021/09/17 09:38:11;;;;;;;13.40;11.38;;;;;;;;;;4946603;28;20052;-65
2021/09/17 09:40:37;;;;;;;11.95;10.68;;;;;;;;;;4966505;28;20031;-65
2021/09/17 09:43:03;;;;;;;12.30;10.30;;;;;;;;;;4968085;28;20129;-66
2021/09/17 09:45:28;;;;;;;11.82;10.05;;;;;;;;;;4967897;28;20738;-69
2021/09/17 09:47:56;;;;;;;11.70;9.98;;;;;;;;;;4950833;28;20132;-66
2021/09/17 09:50:26;;;;;;;10.23;8.93;;;;;;;;;;4972701;28;20058;-63
2021/09/17 09:52:53;;;;;;;11.18;10.07;;;;;;;;;;4974219;28;20046;-66
2021/09/17 09:55:19;;;;;;;10.93;9.60;;;;;;;;;;4973977;28;20033;-67
2021/09/17 09:57:44;;;;;;;11.35;9.95;;;;;;;;;;4972620;28;20027;-64
2021/09/17 10:00:12;;;;;;;10.88;9.50;;;;;;;;;;4955998;28;20034;-66
2021/09/17 10:02:39;;;;;;;10.93;9.15;;;;;;;;;;4973845;28;20089;-65
2021/09/17 10:05:10;;;;;;;11.85;9.35;;;;;;;;;;4973346;28;20031;-64
2021/09/17 10:07:35;;;;;;;11.23;10.02;;;;;;;;;;4974196;28;20027;-66
2021/09/17 10:10:05;;;;;;;12.18;10.43;;;;;;;;;;4974128;28;20106;-65
2021/09/17 10:12:31;;;;;;;14.60;9.75;;;;;;;;;;4973844;28;20022;-65
2021/09/17 10:14:58;;;;;;;12.18;9.43;;;;;;;;;;4971564;28;20019;-65
2021/09/17 10:17:29;;;;;;;11.87;9.50;;;;;;;;;;4972634;28;20457;-66
2021/09/17 10:19:56;;;;;;;10.48;9.20;;;;;;;;;;4971897;28;20670;-65
2021/09/17 10:22:43;;;;;;;12.80;9.85;;;;;;;;;;4974092;28;20058;-63
2021/09/17 10:25:20;;;;;;;11.48;9.63;;;;;;;;;;4954820;28;20038;-64
2021/09/17 10:28:06;;;;;;;13.77;10.20;;;;;;;;;;4974556;28;20073;-67
2021/09/17 10:30:34;;;;;;;13.02;9.82;;;;;;;;;;4965967;28;20031;-66
2021/09/17 10:33:00;;;;;;;13.38;9.68;;;;;;;;;;4972820;28;20447;-65
2021/09/17 10:35:30;;;;;;;12.23;9.68;;;;;;;;;;4973550;28;20038;-63
2021/09/17 10:38:05;;;;;;;11.93;9.85;;;;;;;;;;4971903;28;20042;-66
2021/09/17 10:40:40;;;;;;;13.77;9.70;;;;;;;;;;4974057;28;20122;-68
2021/09/17 10:43:08;;;;;;;10.82;9.15;;;;;;;;;;4973829;28;20446;-65
2021/09/17 10:45:45;;;;;;;10.27;8.25;;;;;;;;;;4974667;28;20031;-65
2021/09/17 10:48:12;;;;;;;10.65;8.90;;;;;;;;;;4972458;28;20566;-66
2021/09/17 10:50:58;;;;;;;13.23;9.05;;;;;;;;;;4971932;28;20031;-64
2021/09/17 10:53:39;;;;;;;11.15;8.95;;;;;;;;;;4956929;28;20034;-65
2021/09/17 10:56:08;;;;;;;11.63;9.40;;;;;;;;;;4972226;28;20070;-65
2021/09/17 10:58:34;;;;;;;14.10;9.02;;;;;;;;;;4971742;28;20030;-66
2021/09/17 11:01:02;;;;;;;10.68;8.63;;;;;;;;;;4971977;28;20030;-66
2021/09/17 11:03:39;;;;;;;9.73;8.27;;;;;;;;;;4972876;28;20034;-66
2021/09/17 11:08:47;;;;;;;11.13;8.77;;;;;;;;;;4974366;28;20055;-65
2021/09/17 11:11:28;;;;;;;9.43;8.38;;;;;;;;;;4973990;28;20085;-66
2021/09/17 11:13:57;;;;;;;12.63;9.85;;;;;;;;;;4974321;28;20031;-65
2021/09/17 11:16:24;;;;;;;10.68;9.00;;;;;;;;;;4972445;28;20038;-63
2021/09/17 11:19:01;;;;;;;9.65;8.63;;;;;;;;;;4974436;28;20114;-66
2021/09/17 11:21:29;;;;;;;11.38;9.40;;;;;;;;;;4972815;28;20045;-65
2021/09/17 11:23:56;;;;;;;13.50;10.18;;;;;;;;;;4973324;28;20476;-65
2021/09/17 11:26:24;;;;;;;11.85;10.65;;;;;;;;;;4971840;28;20019;-64
2021/09/17 11:28:59;;;;;;;11.27;9.50;;;;;;;;;;4973886;28;20031;-63
2021/09/17 11:31:34;;;;;;;13.32;9.63;;;;;;;;;;4970420;28;20054;-66
2021/09/17 11:34:03;;;;;;;10.80;8.85;;;;;;;;;;4968498;28;20125;-67
2021/09/17 11:36:38;;;;;;;12.73;9.90;;;;;;;;;;4971568;28;20030;-63
2021/09/17 11:39:13;;;;;;;17.42;11.98;;;;;;;;;;4973767;28;20082;-65
2021/09/17 11:41:40;;;;;;;12.68;10.15;;;;;;;;;;4972608;28;20081;-67
2021/09/17 11:44:05;;;;;;;10.45;9.35;;;;;;;;;;4971386;28;20065;-66
2021/09/17 11:46:31;;;;;;;13.63;10.02;;;;;;;;;;4973403;28;20050;-63
2021/09/17 11:48:58;;;;;;;9.30;8.30;;;;;;;;;;3941278;28;10000094;-68
2021/09/17 11:51:23;;;;;;;10.65;8.80;;;;;;;;;;4968833;28;20392;-65
2021/09/17 11:53:48;;;;;;;10.98;9.55;;;;;;;;;;4951866;28;20030;-64
2021/09/17 11:56:14;;;;;;;11.20;9.10;;;;;;;;;;4971331;28;20102;-64
2021/09/17 11:58:44;;;;;;;12.07;9.70;;;;;;;;;;4970131;28;20476;-66
2021/09/17 12:01:23;;;;;;;10.52;9.05;;;;;;;;;;4964503;28;20475;-68
2021/09/17 12:03:51;;;;;;;11.07;9.30;;;;;;;;;;4969291;28;20045;-66
2021/09/17 12:06:17;;;;;;;12.68;9.70;;;;;;;;;;4969680;28;20025;-68
2021/09/17 12:08:43;;;;;;;12.57;9.48;;;;;;;;;;4969192;28;20074;-64
2021/09/17 12:11:09;;;;;;;11.57;9.60;;;;;;;;;;4970892;28;20043;-66
2021/09/17 12:13:35;;;;;;;11.85;8.88;;;;;;;;;;4972787;28;20037;-67
2021/09/17 12:16:06;;;;;;;10.38;8.20;;;;;;;;;;4972577;28;20039;-64
2021/09/17 12:18:32;;;;;;;11.35;10.05;;;;;;;;;;4972840;28;20030;-65
2021/09/17 12:20:59;;;;;;;12.25;9.43;;;;;;;;;;4955320;28;20026;-67
2021/09/17 12:23:31;;;;;;;11.55;9.30;;;;;;;;;;4968851;28;20029;-66
2021/09/17 12:26:14;;;;;;;10.85;8.52;;;;;;;;;;4971842;28;20085;-64
2021/09/17 12:28:45;;;;;;;10.43;9.20;;;;;;;;;;4971935;28;20030;-64
2021/09/17 12:31:37;;;;;;;12.55;9.40;;;;;;;;;;4958048;28;20194;-63
2021/09/17 12:34:12;;;;;;;11.15;9.63;;;;;;;;;;4934872;28;20047;-64
2021/09/17 12:36:38;;;;;;;13.07;8.88;;;;;;;;;;4969932;28;20033;-63
2021/09/17 12:39:05;;;;;;;11.90;9.37;;;;;;;;;;4970007;28;20089;-67
2021/09/17 12:41:32;;;;;;;11.10;8.77;;;;;;;;;;4971696;28;20679;-63
2021/09/17 12:44:13;;;;;;;11.38;8.75;;;;;;;;;;4970291;28;20027;-67
2021/09/17 12:46:45;;;;;;;12.00;9.20;;;;;;;;;;4962507;28;20023;-66
2021/09/17 12:49:14;;;;;;;11.68;8.35;;;;;;;;;;4961107;28;20030;-65
2021/09/17 12:51:40;;;;;;;12.43;8.80;;;;;;;;;;4969495;28;20034;-66
2021/09/17 12:54:11;;;;;;;10.88;8.98;;;;;;;;;;4972655;28;20035;-65
2021/09/17 12:56:37;;;;;;;10.85;8.73;;;;;;;;;;4970703;28;20027;-64
2021/09/17 12:59:11;;;;;;;11.48;9.40;;;;;;;;;;4971500;28;20492;-66
2021/09/17 13:01:37;;;;;;;11.50;8.35;;;;;;;;;;4951513;28;20093;-68
2021/09/17 13:04:06;;;;;;;10.43;7.70;;;;;;;;;;4956861;28;20683;-64
2021/09/17 13:06:32;;;;;;;11.48;7.93;;;;;;;;;;4968191;28;20064;-64
2021/09/17 13:08:58;;;;;;;11.10;7.23;;;;;;;;;;4969671;28;20027;-66
2021/09/17 13:11:24;;;;;;;9.57;7.05;;;;;;;;;;4967733;28;20085;-66
2021/09/17 13:13:49;;;;;;;8.30;6.13;;;;;;;;;;4969359;28;20340;-66
2021/09/17 13:16:16;;;;;;;9.05;6.78;;;;;;;;;;4968836;28;20047;-66
2021/09/17 13:18:42;;;;;;;10.57;7.68;;;;;;;;;;4973035;28;20038;-65
2021/09/17 13:21:07;;;;;;;12.25;7.38;;;;;;;;;;4975055;28;20027;-66
2021/09/17 13:23:33;;;;;;;15.43;8.98;;;;;;;;;;4954345;28;20042;-64
2021/09/17 13:25:58;;;;;;;13.18;9.20;;;;;;;;;;4970660;28;20436;-63
2021/09/17 13:28:24;;;;;;;12.38;8.88;;;;;;;;;;4952529;28;20157;-65
2021/09/17 13:30:49;;;;;;;12.77;9.50;;;;;;;;;;4970551;28;20023;-65
2021/09/17 13:33:16;;;;;;;10.07;8.88;;;;;;;;;;4973185;28;20043;-65
2021/09/17 13:35:44;;;;;;;12.98;8.52;;;;;;;;;;4950975;28;20022;-65
2021/09/17 13:38:10;;;;;;;11.30;8.48;;;;;;;;;;4970371;28;20027;-65
2021/09/17 13:40:36;;;;;;;14.02;9.63;;;;;;;;;;4968291;28;20038;-63
2021/09/17 13:43:03;;;;;;;12.52;8.40;;;;;;;;;;4971853;28;20027;-64
2021/09/17 13:45:28;;;;;;;9.73;7.93;;;;;;;;;;4970933;28;20049;-64
2021/09/17 13:47:54;;;;;;;11.73;7.93;;;;;;;;;;4967874;28;20027;-66
2021/09/17 13:50:22;;;;;;;10.00;7.28;;;;;;;;;;4972554;28;20488;-66
2021/09/17 13:52:53;;;;;;;9.77;8.13;;;;;;;;;;4970194;28;20511;-64
2021/09/17 13:55:21;;;;;;;10.98;8.70;;;;;;;;;;4969880;28;20124;-63
2021/09/17 13:57:46;;;;;;;10.18;8.02;;;;;;;;;;4970100;28;20023;-68
2021/09/17 14:00:13;;;;;;;13.68;8.93;;;;;;;;;;4969758;28;20022;-64
2021/09/17 14:02:39;;;;;;;11.45;9.02;;;;;;;;;;4970557;28;20042;-66
2021/09/17 14:05:06;;;;;;;12.80;8.87;;;;;;;;;;4968213;28;20463;-65
2021/09/17 14:07:36;;;;;;;9.75;8.32;;;;;;;;;;4970938;28;20278;-66
2021/09/17 14:10:03;;;;;;;14.85;8.20;;;;;;;;;;4972839;28;20042;-65
2021/09/17 14:12:29;;;;;;;10.80;8.63;;;;;;;;;;4970145;28;20068;-64
2021/09/17 14:14:54;;;;;;;10.43;8.00;;;;;;;;;;4954037;28;20070;-65
2021/09/17 14:17:19;;;;;;;12.32;8.75;;;;;;;;;;4972473;28;20065;-67
2021/09/17 14:19:45;;;;;;;12.48;9.50;;;;;;;;;;4975142;28;20027;-67
2021/09/17 14:22:11;;;;;;;13.63;10.93;;;;;;;;;;4973574;28;20423;-63
2021/09/17 14:24:37;;;;;;;12.40;9.02;;;;;;;;;;4952571;28;20480;-66
2021/09/17 14:27:07;;;;;;;15.07;10.43;;;;;;;;;;4971160;28;20031;-66
2021/09/17 14:29:33;;;;;;;10.30;8.82;;;;;;;;;;4974598;28;20302;-63
2021/09/17 14:31:59;;;;;;;15.35;9.50;;;;;;;;;;4973491;28;20051;-66
2021/09/17 14:34:24;;;;;;;12.88;9.23;;;;;;;;;;4973494;28;20058;-67
2021/09/17 14:36:49;;;;;;;13.98;10.73;;;;;;;;;;4973333;28;20023;-68
2021/09/17 14:39:15;;;;;;;13.98;9.70;;;;;;;;;;4974756;28;20472;-66
2021/09/17 14:41:42;;;;;;;10.90;8.48;;;;;;;;;;4974104;28;20361;-67
2021/09/17 14:44:08;;;;;;;10.05;8.35;;;;;;;;;;4973212;28;20037;-67
2021/09/17 14:46:33;;;;;;;11.13;8.75;;;;;;;;;;4973968;28;20026;-66
2021/09/17 14:48:59;;;;;;;12.13;9.63;;;;;;;;;;4973498;28;20023;-67